Date,TemperatureHighF,TemperatureAvgF,TemperatureLowF,DewpointHighF,DewpointAvgF,DewpointLowF,HumidityHigh,HumidityAvg,HumidityLow,PressureMaxIn,PressureMinIn,WindSpeedMaxMPH,WindSpeedAvgMPH,GustSpeedMaxMPH,PrecipitationSumIn
2013-2-1,32.9,21.5,13.6,27.1,4.6,-6.6,88,51,22,29.80,29.27,21,6,21,0.01
2013-2-2,31.5,21.1,10.6,23.5,12.7,2.1,82,70,41,29.78,29.46,8,2,9,0.00
2013-2-3,37.0,30.4,27.1,26.1,20.5,12.1,88,67,52,29.53,29.32,14,3,19,0.00
2013-2-4,41.9,31.2,22.8,32.0,16.7,8.6,75,55,40,29.57,29.35,10,3,13,0.08
2013-2-5,49.8,39.2,34.7,34.9,31.0,28.5,83,73,48,29.39,29.32,8,2,13,0.00
2013-2-6,59.9,41.6,30.6,32.8,27.3,18.8,84,61,24,29.71,29.39,10,2,14,0.00
2013-2-7,49.1,38.2,29.5,33.9,30.0,25.7,87,73,52,29.74,29.50,8,2,12,0.00
2013-2-8,47.3,38.0,33.4,37.2,29.4,21.2,86,71,55,29.64,29.34,16,4,26,0.05
2013-2-9,54.7,35.4,25.9,22.4,14.9,7.8,66,46,19,29.80,29.64,12,4,23,0.00
2013-2-10,59.0,38.7,23.0,35.6,19.8,13.5,82,53,19,29.83,29.56,16,2,16,0.06
2013-2-11,63.1,49.9,40.8,48.5,33.7,13.3,93,61,21,29.55,29.33,21,5,21,0.04
2013-2-12,60.8,45.2,33.3,28.4,21.9,14.9,71,43,18,29.58,29.37,18,4,21,0.00
2013-2-13,41.9,38.6,35.6,39.7,30.9,25.2,93,74,59,29.40,29.06,12,2,22,0.19
2013-2-14,54.1,39.2,29.1,28.7,24.9,19.6,80,59,26,29.48,29.33,11,3,14,0.00
2013-2-15,58.3,37.6,27.7,36.2,29.4,23.8,92,75,32,29.52,29.37,14,2,17,0.05
2013-2-16,35.2,30.3,24.3,26.0,18.2,11.0,78,61,42,29.49,29.37,16,2,17,0.00
2013-2-17,29.8,21.5,16.0,14.2,2.3,-5.2,76,44,23,29.69,29.41,17,6,21,0.01
2013-2-18,58.5,31.4,13.5,30.3,15.1,5.0,73,54,23,29.79,29.50,7,2,9,0.00
2013-2-19,52.7,40.8,33.6,39.5,25.6,10.0,88,58,26,29.51,29.24,19,4,26,0.09
2013-2-20,39.4,31.0,25.3,11.6,8.1,3.5,47,38,24,29.62,29.43,18,6,22,0.00
2013-2-21,50.7,31.7,18.9,19.3,11.1,5.4,60,44,22,29.73,29.59,9,3,9,0.00
2013-2-22,48.6,38.8,33.6,35.0,30.3,16.9,85,72,45,29.67,29.51,8,2,12,0.13
2013-2-23,62.6,45.1,37.4,41.4,36.0,32.0,87,72,44,29.52,29.28,6,2,6,0.00
2013-2-24,54.3,41.6,32.7,36.8,23.9,14.0,88,54,23,29.55,29.32,15,4,22,0.00
2013-2-25,55.9,36.1,24.6,24.8,20.9,16.6,76,56,27,29.63,29.48,9,2,13,0.00
2013-2-26,42.4,38.2,33.1,39.5,29.0,16.0,95,72,43,29.54,29.03,8,2,11,0.41
2013-2-27,45.0,41.1,37.4,39.4,33.4,29.4,98,75,55,29.21,29.06,11,4,21,0.04
2013-2-28,37.8,34.5,33.1,30.0,24.4,19.7,83,67,55,29.31,29.16,14,3,18,0.01